LZIBLOWG

Guest
Details From LZIB - Bratislava Mr Stefanik
To LOWG - Graz Thalerhof
Flight Number -
Tags Generated
Created
Modified
Stats Distance 100 nm / 185 km
Max Altitude 0 ft / 0 m
Waypoints 2
Social Downloads 1
Likes 0
Share VATSIM

Download

Looking for another format? Having issues loading an existing format? Contact us
Advertisement - Login to hide

Notes

Generated

Route

LZIB LOWG

ID Type Via Altitude Latitude Longitude Leg Dist Tot Dist Heading (true) Name
O LZIB APT - 0 ft / 0 m 48.16081˚ 17.19942˚ - 0 nm - -
O LOWG APT - 0 ft / 0 m 46.99065˚ 15.44259˚ 100 nm 100 nm 226° / 225° Graz Thalerhof

Altitude Profile

Advertisement - Login to hide

LZIB

Details ICAO LZIB (BTS)
Name Bratislava/M.R. Stefanik
Region Slovakia
Timezone Europe/Bratislava (UTC+1.0)
Stats Elevation 436 ft / 133 m (AMSL)
Location 48.168314° 17.215597°
Runways 2
Magnetic Variation 4.405° E

METAR

LZIB 172130Z 28009KT 9999 FEW028 SCT060 02/M01 Q1022

Decode

TAF

Not found

Departure Runways

ID Width Length Bearing (true) Bearing (mag) Surface Threshold Offset Overrun Length
04 197 ft / 60 m 9,540 ft / 2,908 m 43.80° 39.39° Concrete 0 ft / 0 m 7 ft / 2 m
13 148 ft / 45 m 9,688 ft / 2,953 m 134.02° 129.61° Concrete 0 ft / 0 m 98 ft / 30 m
22 197 ft / 60 m 9,540 ft / 2,908 m 223.82° 219.41° Concrete 0 ft / 0 m 49 ft / 15 m
31 148 ft / 45 m 9,688 ft / 2,953 m 314.04° 309.63° Concrete 0 ft / 0 m 810 ft / 247 m

LOWG

Details ICAO LOWG (GRZ)
Name Graz Thalerhof
Region Austria
Timezone Europe/Vienna (UTC+1.0)
Stats Elevation 1,115 ft / 340 m (AMSL)
Location 46.990308° 15.439665°
Runways 3
Magnetic Variation 3.922° E

METAR

LOWG 172120Z AUTO VRB01KT 6000 2500S BR BKN150 M04/M04 Q1022 TEMPO 1200 FZBCFG

Decode

TAF

TAF TAF LOWG 171715Z 1718/1818 VRB02KT 9999 FEW050 SCT100 TX03/1812Z TNM05/1805Z TEMPO 1718/1809 4000 BR PROB40 TEMPO 1722/1808 1200 FZBCFG PROB30 TEMPO 1800/1807 0200 FZFG VV001

Decode

Destination Runways

ID Width Length Bearing (true) Bearing (mag) Surface Threshold Offset Overrun Length
17C 148 ft / 45 m 9,852 ft / 3,003 m 169.37° 165.45° Asphalt 853 ft / 260 m 98 ft / 30 m
17L 98 ft / 30 m 2,102 ft / 641 m 169.41° 165.49° Grass 0 ft / 0 m 0 ft / 0 m
17R 82 ft / 25 m 2,496 ft / 761 m 169.40° 165.48° Grass 492 ft / 150 m 0 ft / 0 m
35C 148 ft / 45 m 9,852 ft / 3,003 m 349.37° 345.45° Asphalt 0 ft / 0 m 0 ft / 0 m
35L 82 ft / 25 m 2,496 ft / 761 m 349.40° 345.48° Grass 0 ft / 0 m 0 ft / 0 m
35R 98 ft / 30 m 2,102 ft / 641 m 349.41° 345.49° Grass 0 ft / 0 m 0 ft / 0 m

Approach Navaids

Runway Type Ident Frequency Range Bearing (true) Bearing (mag) Slope Elevation
35C Localiser OEG 110.90 MHz 18 nm / 33 km 349.36° 345.44° - 1,098 ft / 335 m (AMSL)
35C Glidescope OEG 110.90 MHz 10 nm / 19 km 349.37° 345.45° 3.00° 1,098 ft / 335 m (AMSL)
35C DME OEG 110.90 MHz 18 nm / 33 km - - - 1,098 ft / 335 m (AMSL)

Popular Alternatives